sensor_id;sensor_type;location;lat;lon;timestamp;temperature;humidity
23311;DHT22;11828;51.508;18.118;2023-04-25T00:00:24;27.20;35.70
23311;DHT22;11828;51.508;18.118;2023-04-25T00:03:10;27.20;35.50
23311;DHT22;11828;51.508;18.118;2023-04-25T00:05:37;27.20;35.30
23311;DHT22;11828;51.508;18.118;2023-04-25T00:08:04;27.10;35.00
23311;DHT22;11828;51.508;18.118;2023-04-25T00:10:31;27.10;35.00
23311;DHT22;11828;51.508;18.118;2023-04-25T00:12:57;27.10;34.80
23311;DHT22;11828;51.508;18.118;2023-04-25T00:15:24;27.10;34.80
23311;DHT22;11828;51.508;18.118;2023-04-25T00:17:50;27.10;34.70
23311;DHT22;11828;51.508;18.118;2023-04-25T00:20:18;27.10;34.30
23311;DHT22;11828;51.508;18.118;2023-04-25T00:22:45;26.90;34.20
23311;DHT22;11828;51.508;18.118;2023-04-25T00:25:11;26.90;34.00
23311;DHT22;11828;51.508;18.118;2023-04-25T00:27:37;26.80;34.10
23311;DHT22;11828;51.508;18.118;2023-04-25T00:30:05;26.80;34.00
23311;DHT22;11828;51.508;18.118;2023-04-25T00:32:31;26.80;34.10
23311;DHT22;11828;51.508;18.118;2023-04-25T00:34:58;26.80;33.90
23311;DHT22;11828;51.508;18.118;2023-04-25T00:37:24;26.80;33.80
23311;DHT22;11828;51.508;18.118;2023-04-25T00:39:51;26.80;33.80
23311;DHT22;11828;51.508;18.118;2023-04-25T00:42:19;26.80;33.60
23311;DHT22;11828;51.508;18.118;2023-04-25T00:44:46;26.80;33.60
23311;DHT22;11828;51.508;18.118;2023-04-25T00:47:13;26.80;33.40
23311;DHT22;11828;51.508;18.118;2023-04-25T00:49:39;26.80;33.30
23311;DHT22;11828;51.508;18.118;2023-04-25T00:52:05;26.80;33.20
23311;DHT22;11828;51.508;18.118;2023-04-25T00:54:32;26.70;33.20
23311;DHT22;11828;51.508;18.118;2023-04-25T00:56:58;26.70;33.30
23311;DHT22;11828;51.508;18.118;2023-04-25T00:59:27;26.70;33.30
23311;DHT22;11828;51.508;18.118;2023-04-25T01:01:54;26.70;33.10
23311;DHT22;11828;51.508;18.118;2023-04-25T01:04:20;26.70;33.00
23311;DHT22;11828;51.508;18.118;2023-04-25T01:06:48;26.60;32.80
23311;DHT22;11828;51.508;18.118;2023-04-25T01:09:14;26.70;32.90
23311;DHT22;11828;51.508;18.118;2023-04-25T01:11:40;26.60;32.90
23311;DHT22;11828;51.508;18.118;2023-04-25T01:14:07;26.50;32.80
23311;DHT22;11828;51.508;18.118;2023-04-25T01:16:33;26.60;32.90
23311;DHT22;11828;51.508;18.118;2023-04-25T01:18:59;26.50;32.70
23311;DHT22;11828;51.508;18.118;2023-04-25T01:21:25;26.40;32.80
23311;DHT22;11828;51.508;18.118;2023-04-25T01:23:54;26.50;32.80
23311;DHT22;11828;51.508;18.118;2023-04-25T01:26:21;26.40;32.70
23311;DHT22;11828;51.508;18.118;2023-04-25T01:28:48;26.50;32.60
23311;DHT22;11828;51.508;18.118;2023-04-25T01:31:15;26.60;32.30
23311;DHT22;11828;51.508;18.118;2023-04-25T01:33:44;26.70;32.00
23311;DHT22;11828;51.508;18.118;2023-04-25T01:36:11;26.70;31.70
23311;DHT22;11828;51.508;18.118;2023-04-25T01:38:38;26.80;31.50
23311;DHT22;11828;51.508;18.118;2023-04-25T01:41:05;26.90;31.40
23311;DHT22;11828;51.508;18.118;2023-04-25T01:43:31;26.90;31.00
23311;DHT22;11828;51.508;18.118;2023-04-25T01:45:57;26.90;30.70
23311;DHT22;11828;51.508;18.118;2023-04-25T01:48:24;26.90;30.60
23311;DHT22;11828;51.508;18.118;2023-04-25T01:50:50;26.90;30.50
23311;DHT22;11828;51.508;18.118;2023-04-25T01:53:17;26.80;30.40
23311;DHT22;11828;51.508;18.118;2023-04-25T01:55:43;26.80;30.40
23311;DHT22;11828;51.508;18.118;2023-04-25T01:58:09;26.70;30.20
23311;DHT22;11828;51.508;18.118;2023-04-25T02:00:38;26.70;30.10
23311;DHT22;11828;51.508;18.118;2023-04-25T02:03:05;26.70;30.20
23311;DHT22;11828;51.508;18.118;2023-04-25T02:05:38;26.70;30.00
23311;DHT22;11828;51.508;18.118;2023-04-25T02:08:06;26.60;30.00
23311;DHT22;11828;51.508;18.118;2023-04-25T02:10:34;26.60;30.00
23311;DHT22;11828;51.508;18.118;2023-04-25T02:13:01;26.60;30.00
23311;DHT22;11828;51.508;18.118;2023-04-25T02:15:27;26.60;29.90
23311;DHT22;11828;51.508;18.118;2023-04-25T02:17:53;26.70;30.30
23311;DHT22;11828;51.508;18.118;2023-04-25T02:20:21;26.70;29.80
23311;DHT22;11828;51.508;18.118;2023-04-25T02:22:48;26.70;29.80
23311;DHT22;11828;51.508;18.118;2023-04-25T02:25:15;26.80;29.60
23311;DHT22;11828;51.508;18.118;2023-04-25T02:27:42;26.80;29.50
23311;DHT22;11828;51.508;18.118;2023-04-25T02:30:09;26.70;30.00
23311;DHT22;11828;51.508;18.118;2023-04-25T02:32:35;26.80;29.50
23311;DHT22;11828;51.508;18.118;2023-04-25T02:35:02;26.70;29.50
23311;DHT22;11828;51.508;18.118;2023-04-25T02:37:32;26.70;29.60
23311;DHT22;11828;51.508;18.118;2023-04-25T02:39:59;26.70;29.60
23311;DHT22;11828;51.508;18.118;2023-04-25T02:42:26;26.70;29.60
23311;DHT22;11828;51.508;18.118;2023-04-25T02:44:52;26.70;29.70
23311;DHT22;11828;51.508;18.118;2023-04-25T02:47:19;26.70;29.60
23311;DHT22;11828;51.508;18.118;2023-04-25T02:49:45;26.70;29.70
23311;DHT22;11828;51.508;18.118;2023-04-25T02:52:12;26.70;29.80
23311;DHT22;11828;51.508;18.118;2023-04-25T02:54:39;26.70;29.70
23311;DHT22;11828;51.508;18.118;2023-04-25T02:57:06;26.60;29.60
23311;DHT22;11828;51.508;18.118;2023-04-25T02:59:33;26.60;29.70
23311;DHT22;11828;51.508;18.118;2023-04-25T03:01:59;26.70;29.70
23311;DHT22;11828;51.508;18.118;2023-04-25T03:04:25;26.70;29.70
23311;DHT22;11828;51.508;18.118;2023-04-25T03:06:52;26.60;29.70
23311;DHT22;11828;51.508;18.118;2023-04-25T03:09:19;26.60;29.70
23311;DHT22;11828;51.508;18.118;2023-04-25T03:11:46;26.70;29.80
23311;DHT22;11828;51.508;18.118;2023-04-25T03:14:13;26.60;29.60
23311;DHT22;11828;51.508;18.118;2023-04-25T03:16:40;26.50;29.70
23311;DHT22;11828;51.508;18.118;2023-04-25T03:19:06;26.50;29.70
23311;DHT22;11828;51.508;18.118;2023-04-25T03:21:34;26.50;29.80
23311;DHT22;11828;51.508;18.118;2023-04-25T03:24:01;26.50;29.80
23311;DHT22;11828;51.508;18.118;2023-04-25T03:26:29;26.60;29.60
23311;DHT22;11828;51.508;18.118;2023-04-25T03:28:55;26.60;29.60
23311;DHT22;11828;51.508;18.118;2023-04-25T03:31:22;26.60;29.70
23311;DHT22;11828;51.508;18.118;2023-04-25T03:33:48;26.60;29.60
23311;DHT22;11828;51.508;18.118;2023-04-25T03:36:14;26.60;29.50
23311;DHT22;11828;51.508;18.118;2023-04-25T03:38:40;26.50;29.60
23311;DHT22;11828;51.508;18.118;2023-04-25T03:41:10;26.40;29.50
23311;DHT22;11828;51.508;18.118;2023-04-25T03:43:35;26.50;29.60
23311;DHT22;11828;51.508;18.118;2023-04-25T03:46:02;26.40;29.60
23311;DHT22;11828;51.508;18.118;2023-04-25T03:48:28;26.40;29.70
23311;DHT22;11828;51.508;18.118;2023-04-25T03:50:54;26.50;29.70
23311;DHT22;11828;51.508;18.118;2023-04-25T03:53:20;26.50;29.60
23311;DHT22;11828;51.508;18.118;2023-04-25T03:55:47;26.40;29.60
23311;DHT22;11828;51.508;18.118;2023-04-25T03:58:13;26.30;29.80
23311;DHT22;11828;51.508;18.118;2023-04-25T04:00:40;26.20;29.80
23311;DHT22;11828;51.508;18.118;2023-04-25T04:03:06;26.20;29.90
23311;DHT22;11828;51.508;18.118;2023-04-25T04:05:32;26.20;29.90
23311;DHT22;11828;51.508;18.118;2023-04-25T04:07:58;26.20;30.00
23311;DHT22;11828;51.508;18.118;2023-04-25T04:10:25;26.20;30.00
23311;DHT22;11828;51.508;18.118;2023-04-25T04:12:51;26.10;30.10
23311;DHT22;11828;51.508;18.118;2023-04-25T04:15:17;26.10;30.00
23311;DHT22;11828;51.508;18.118;2023-04-25T04:17:43;26.10;30.10
23311;DHT22;11828;51.508;18.118;2023-04-25T04:20:10;26.20;30.10
23311;DHT22;11828;51.508;18.118;2023-04-25T04:22:36;26.30;30.10
23311;DHT22;11828;51.508;18.118;2023-04-25T04:25:03;26.30;30.10
23311;DHT22;11828;51.508;18.118;2023-04-25T04:27:30;26.30;30.10
23311;DHT22;11828;51.508;18.118;2023-04-25T04:29:56;26.30;30.00
23311;DHT22;11828;51.508;18.118;2023-04-25T04:32:23;26.20;30.00
23311;DHT22;11828;51.508;18.118;2023-04-25T04:34:51;26.20;30.10
23311;DHT22;11828;51.508;18.118;2023-04-25T04:37:18;26.20;30.00
23311;DHT22;11828;51.508;18.118;2023-04-25T04:39:45;26.30;30.10
23311;DHT22;11828;51.508;18.118;2023-04-25T04:42:11;26.30;30.00
23311;DHT22;11828;51.508;18.118;2023-04-25T04:44:37;26.40;30.00
23311;DHT22;11828;51.508;18.118;2023-04-25T04:47:04;26.50;29.80
23311;DHT22;11828;51.508;18.118;2023-04-25T04:49:32;26.60;29.70
23311;DHT22;11828;51.508;18.118;2023-04-25T04:51:58;26.60;29.70
23311;DHT22;11828;51.508;18.118;2023-04-25T04:54:25;26.60;29.60
23311;DHT22;11828;51.508;18.118;2023-04-25T04:56:52;26.60;29.70
23311;DHT22;11828;51.508;18.118;2023-04-25T04:59:20;26.60;29.70
23311;DHT22;11828;51.508;18.118;2023-04-25T05:01:46;26.70;29.50
23311;DHT22;11828;51.508;18.118;2023-04-25T05:04:13;26.80;29.50
23311;DHT22;11828;51.508;18.118;2023-04-25T05:06:39;26.80;29.50
23311;DHT22;11828;51.508;18.118;2023-04-25T05:09:06;26.80;29.30
23311;DHT22;11828;51.508;18.118;2023-04-25T05:11:32;26.90;29.40
23311;DHT22;11828;51.508;18.118;2023-04-25T05:13:58;26.90;29.30
23311;DHT22;11828;51.508;18.118;2023-04-25T05:16:24;27.00;29.20
23311;DHT22;11828;51.508;18.118;2023-04-25T05:18:51;27.20;29.30
23311;DHT22;11828;51.508;18.118;2023-04-25T05:21:17;27.30;29.30
23311;DHT22;11828;51.508;18.118;2023-04-25T05:23:44;27.40;29.20
23311;DHT22;11828;51.508;18.118;2023-04-25T05:26:10;27.40;28.90
23311;DHT22;11828;51.508;18.118;2023-04-25T05:28:40;27.40;28.80
23311;DHT22;11828;51.508;18.118;2023-04-25T05:31:07;27.40;28.70
23311;DHT22;11828;51.508;18.118;2023-04-25T05:33:35;27.40;28.80
23311;DHT22;11828;51.508;18.118;2023-04-25T05:36:01;27.40;28.90
23311;DHT22;11828;51.508;18.118;2023-04-25T05:38:28;27.40;28.80
23311;DHT22;11828;51.508;18.118;2023-04-25T05:40:55;27.40;28.90
23311;DHT22;11828;51.508;18.118;2023-04-25T05:43:21;27.40;28.80
23311;DHT22;11828;51.508;18.118;2023-04-25T05:45:47;27.40;28.90
23311;DHT22;11828;51.508;18.118;2023-04-25T05:48:13;27.40;28.90
23311;DHT22;11828;51.508;18.118;2023-04-25T05:50:39;27.60;28.90
23311;DHT22;11828;51.508;18.118;2023-04-25T05:53:06;27.60;28.80
23311;DHT22;11828;51.508;18.118;2023-04-25T05:55:32;27.60;28.80
23311;DHT22;11828;51.508;18.118;2023-04-25T05:57:58;27.70;28.60
23311;DHT22;11828;51.508;18.118;2023-04-25T06:00:24;27.70;28.50
23311;DHT22;11828;51.508;18.118;2023-04-25T06:02:51;27.70;28.60
23311;DHT22;11828;51.508;18.118;2023-04-25T06:05:17;27.90;28.60
23311;DHT22;11828;51.508;18.118;2023-04-25T06:07:43;27.90;28.40
23311;DHT22;11828;51.508;18.118;2023-04-25T06:10:10;28.00;28.40
23311;DHT22;11828;51.508;18.118;2023-04-25T06:12:36;28.20;28.20
23311;DHT22;11828;51.508;18.118;2023-04-25T06:15:04;28.30;28.30
23311;DHT22;11828;51.508;18.118;2023-04-25T06:17:32;28.50;28.10
23311;DHT22;11828;51.508;18.118;2023-04-25T06:19:58;28.70;27.80
23311;DHT22;11828;51.508;18.118;2023-04-25T06:22:24;28.80;27.60
23311;DHT22;11828;51.508;18.118;2023-04-25T06:24:50;28.80;27.70
23311;DHT22;11828;51.508;18.118;2023-04-25T06:27:17;29.00;27.70
23311;DHT22;11828;51.508;18.118;2023-04-25T06:29:43;29.10;27.80
23311;DHT22;11828;51.508;18.118;2023-04-25T06:32:09;29.20;27.70
23311;DHT22;11828;51.508;18.118;2023-04-25T06:34:35;29.40;27.10
23311;DHT22;11828;51.508;18.118;2023-04-25T06:37:01;29.50;27.00
23311;DHT22;11828;51.508;18.118;2023-04-25T06:39:28;29.80;27.00
23311;DHT22;11828;51.508;18.118;2023-04-25T06:41:54;30.00;26.90
23311;DHT22;11828;51.508;18.118;2023-04-25T06:44:20;30.20;26.50
23311;DHT22;11828;51.508;18.118;2023-04-25T06:46:49;30.50;26.30
23311;DHT22;11828;51.508;18.118;2023-04-25T06:49:15;30.70;26.30
23311;DHT22;11828;51.508;18.118;2023-04-25T06:51:41;31.00;26.10
23311;DHT22;11828;51.508;18.118;2023-04-25T06:54:07;31.40;26.00
23311;DHT22;11828;51.508;18.118;2023-04-25T06:56:33;31.80;25.80
23311;DHT22;11828;51.508;18.118;2023-04-25T06:58:59;32.30;25.40
23311;DHT22;11828;51.508;18.118;2023-04-25T07:01:26;32.60;24.90
23311;DHT22;11828;51.508;18.118;2023-04-25T07:03:52;32.80;24.70
23311;DHT22;11828;51.508;18.118;2023-04-25T07:06:19;33.00;24.30
23311;DHT22;11828;51.508;18.118;2023-04-25T07:08:45;33.00;23.90
23311;DHT22;11828;51.508;18.118;2023-04-25T07:11:11;33.20;24.10
23311;DHT22;11828;51.508;18.118;2023-04-25T07:13:37;33.50;23.80
23311;DHT22;11828;51.508;18.118;2023-04-25T07:16:03;33.90;23.60
23311;DHT22;11828;51.508;18.118;2023-04-25T07:18:30;34.10;22.80
23311;DHT22;11828;51.508;18.118;2023-04-25T07:20:56;34.20;22.20
23311;DHT22;11828;51.508;18.118;2023-04-25T07:23:22;34.50;22.50
23311;DHT22;11828;51.508;18.118;2023-04-25T07:25:49;34.90;22.50
23311;DHT22;11828;51.508;18.118;2023-04-25T07:28:15;35.50;22.20
23311;DHT22;11828;51.508;18.118;2023-04-25T07:30:41;35.70;21.30
23311;DHT22;11828;51.508;18.118;2023-04-25T07:33:07;35.60;21.10
23311;DHT22;11828;51.508;18.118;2023-04-25T07:35:33;35.50;20.80
23311;DHT22;11828;51.508;18.118;2023-04-25T07:37:59;35.20;21.10
23311;DHT22;11828;51.508;18.118;2023-04-25T07:40:26;35.10;20.90
23311;DHT22;11828;51.508;18.118;2023-04-25T07:42:52;34.90;21.30
23311;DHT22;11828;51.508;18.118;2023-04-25T07:45:18;34.70;21.20
23311;DHT22;11828;51.508;18.118;2023-04-25T07:47:44;34.40;21.10
23311;DHT22;11828;51.508;18.118;2023-04-25T07:50:10;34.10;21.30
23311;DHT22;11828;51.508;18.118;2023-04-25T07:52:37;33.70;21.00
23311;DHT22;11828;51.508;18.118;2023-04-25T07:55:03;33.40;21.30
23311;DHT22;11828;51.508;18.118;2023-04-25T07:57:29;33.20;21.50
23311;DHT22;11828;51.508;18.118;2023-04-25T07:59:56;33.10;21.60
23311;DHT22;11828;51.508;18.118;2023-04-25T08:02:22;33.10;21.60
23311;DHT22;11828;51.508;18.118;2023-04-25T08:04:49;32.90;21.50
23311;DHT22;11828;51.508;18.118;2023-04-25T08:07:15;32.90;21.30
23311;DHT22;11828;51.508;18.118;2023-04-25T08:09:41;32.90;21.70
23311;DHT22;11828;51.508;18.118;2023-04-25T08:12:07;32.90;21.90
23311;DHT22;11828;51.508;18.118;2023-04-25T08:14:34;33.00;22.00
23311;DHT22;11828;51.508;18.118;2023-04-25T08:17:05;33.00;21.90
23311;DHT22;11828;51.508;18.118;2023-04-25T08:19:31;33.00;21.70
23311;DHT22;11828;51.508;18.118;2023-04-25T08:21:57;33.10;21.60
23311;DHT22;11828;51.508;18.118;2023-04-25T08:24:24;33.10;21.20
23311;DHT22;11828;51.508;18.118;2023-04-25T08:26:51;33.20;21.60
23311;DHT22;11828;51.508;18.118;2023-04-25T08:29:17;33.30;21.30
23311;DHT22;11828;51.508;18.118;2023-04-25T08:31:43;33.60;21.30
23311;DHT22;11828;51.508;18.118;2023-04-25T08:34:10;33.70;20.80
23311;DHT22;11828;51.508;18.118;2023-04-25T08:36:37;33.80;21.20
23311;DHT22;11828;51.508;18.118;2023-04-25T08:39:03;34.10;20.90
23311;DHT22;11828;51.508;18.118;2023-04-25T08:41:29;34.20;20.40
23311;DHT22;11828;51.508;18.118;2023-04-25T08:43:56;34.40;20.70
23311;DHT22;11828;51.508;18.118;2023-04-25T08:46:25;34.40;20.50
23311;DHT22;11828;51.508;18.118;2023-04-25T08:48:53;34.40;20.50
23311;DHT22;11828;51.508;18.118;2023-04-25T08:51:25;34.50;20.50
23311;DHT22;11828;51.508;18.118;2023-04-25T08:53:54;34.60;20.50
23311;DHT22;11828;51.508;18.118;2023-04-25T08:56:20;34.70;20.30
23311;DHT22;11828;51.508;18.118;2023-04-25T08:58:49;34.80;20.40
23311;DHT22;11828;51.508;18.118;2023-04-25T09:01:16;34.90;20.20
23311;DHT22;11828;51.508;18.118;2023-04-25T09:03:44;34.80;20.30
23311;DHT22;11828;51.508;18.118;2023-04-25T09:06:12;34.50;19.80
23311;DHT22;11828;51.508;18.118;2023-04-25T09:08:39;34.10;19.90
23311;DHT22;11828;51.508;18.118;2023-04-25T09:11:06;33.80;20.20
23311;DHT22;11828;51.508;18.118;2023-04-25T09:13:33;33.50;20.50
23311;DHT22;11828;51.508;18.118;2023-04-25T09:15:59;33.40;20.70
23311;DHT22;11828;51.508;18.118;2023-04-25T09:18:27;33.50;20.50
23311;DHT22;11828;51.508;18.118;2023-04-25T09:21:11;33.60;20.70
23311;DHT22;11828;51.508;18.118;2023-04-25T09:23:48;33.80;19.70
23311;DHT22;11828;51.508;18.118;2023-04-25T09:26:19;34.10;19.60
23311;DHT22;11828;51.508;18.118;2023-04-25T09:28:46;34.20;19.40
23311;DHT22;11828;51.508;18.118;2023-04-25T09:31:21;34.20;19.30
23311;DHT22;11828;51.508;18.118;2023-04-25T09:33:50;34.20;19.20
23311;DHT22;11828;51.508;18.118;2023-04-25T09:36:26;33.90;19.10
23311;DHT22;11828;51.508;18.118;2023-04-25T09:38:53;33.60;19.10
23311;DHT22;11828;51.508;18.118;2023-04-25T09:41:24;33.20;19.50
23311;DHT22;11828;51.508;18.118;2023-04-25T09:43:51;32.70;19.60
23311;DHT22;11828;51.508;18.118;2023-04-25T09:46:17;32.40;20.10
23311;DHT22;11828;51.508;18.118;2023-04-25T09:48:50;32.00;20.20
23311;DHT22;11828;51.508;18.118;2023-04-25T09:51:16;31.70;20.50
23311;DHT22;11828;51.508;18.118;2023-04-25T09:53:45;31.50;20.40
23311;DHT22;11828;51.508;18.118;2023-04-25T09:56:12;31.50;20.90
23311;DHT22;11828;51.508;18.118;2023-04-25T09:58:40;31.60;20.70
23311;DHT22;11828;51.508;18.118;2023-04-25T10:01:08;31.70;20.80
23311;DHT22;11828;51.508;18.118;2023-04-25T10:03:39;31.80;20.60
23311;DHT22;11828;51.508;18.118;2023-04-25T10:06:12;31.90;20.40
23311;DHT22;11828;51.508;18.118;2023-04-25T10:08:40;31.90;20.40
23311;DHT22;11828;51.508;18.118;2023-04-25T10:11:08;31.90;20.20
23311;DHT22;11828;51.508;18.118;2023-04-25T10:13:35;31.80;20.40
23311;DHT22;11828;51.508;18.118;2023-04-25T10:16:04;31.90;20.80
23311;DHT22;11828;51.508;18.118;2023-04-25T10:18:31;32.10;20.60
23311;DHT22;11828;51.508;18.118;2023-04-25T10:21:00;32.20;20.50
23311;DHT22;11828;51.508;18.118;2023-04-25T10:23:27;32.10;20.10
23311;DHT22;11828;51.508;18.118;2023-04-25T10:25:55;31.90;20.20
23311;DHT22;11828;51.508;18.118;2023-04-25T10:28:21;31.80;20.40
23311;DHT22;11828;51.508;18.118;2023-04-25T10:31:04;31.80;20.30
23311;DHT22;11828;51.508;18.118;2023-04-25T10:33:37;31.70;20.40
23311;DHT22;11828;51.508;18.118;2023-04-25T10:36:19;31.80;20.80
23311;DHT22;11828;51.508;18.118;2023-04-25T10:38:50;32.10;20.90
23311;DHT22;11828;51.508;18.118;2023-04-25T10:41:21;32.50;20.20
23311;DHT22;11828;51.508;18.118;2023-04-25T10:43:50;32.60;19.70
23311;DHT22;11828;51.508;18.118;2023-04-25T10:46:29;32.70;19.20
23311;DHT22;11828;51.508;18.118;2023-04-25T10:48:59;32.80;19.30
23311;DHT22;11828;51.508;18.118;2023-04-25T10:51:31;32.90;19.30
23311;DHT22;11828;51.508;18.118;2023-04-25T10:54:03;32.90;19.30
23311;DHT22;11828;51.508;18.118;2023-04-25T10:56:39;32.80;19.50
23311;DHT22;11828;51.508;18.118;2023-04-25T10:59:12;32.60;19.50
23311;DHT22;11828;51.508;18.118;2023-04-25T11:01:43;32.40;19.40
23311;DHT22;11828;51.508;18.118;2023-04-25T11:04:21;32.30;19.60
23311;DHT22;11828;51.508;18.118;2023-04-25T11:10:02;32.20;19.70
23311;DHT22;11828;51.508;18.118;2023-04-25T11:12:31;32.20;19.80
23311;DHT22;11828;51.508;18.118;2023-04-25T11:15:05;32.20;19.80
23311;DHT22;11828;51.508;18.118;2023-04-25T11:17:33;32.30;19.80
23311;DHT22;11828;51.508;18.118;2023-04-25T11:20:00;32.30;20.10
23311;DHT22;11828;51.508;18.118;2023-04-25T11:22:27;32.20;19.80
23311;DHT22;11828;51.508;18.118;2023-04-25T11:24:54;32.00;19.70
23311;DHT22;11828;51.508;18.118;2023-04-25T11:27:20;32.00;19.90
23311;DHT22;11828;51.508;18.118;2023-04-25T11:29:47;31.80;19.70
23311;DHT22;11828;51.508;18.118;2023-04-25T11:32:15;31.60;20.00
23311;DHT22;11828;51.508;18.118;2023-04-25T11:34:44;31.40;19.90
23311;DHT22;11828;51.508;18.118;2023-04-25T11:37:14;31.20;19.90
23311;DHT22;11828;51.508;18.118;2023-04-25T11:39:44;31.10;20.20
23311;DHT22;11828;51.508;18.118;2023-04-25T11:42:11;31.00;20.70
23311;DHT22;11828;51.508;18.118;2023-04-25T11:44:40;31.00;20.90
23311;DHT22;11828;51.508;18.118;2023-04-25T11:47:06;30.90;20.90
23311;DHT22;11828;51.508;18.118;2023-04-25T11:49:33;30.80;21.00
23311;DHT22;11828;51.508;18.118;2023-04-25T11:52:00;30.70;20.80
23311;DHT22;11828;51.508;18.118;2023-04-25T11:54:27;30.50;20.90
23311;DHT22;11828;51.508;18.118;2023-04-25T11:56:53;30.40;21.20
23311;DHT22;11828;51.508;18.118;2023-04-25T11:59:23;30.40;21.40
23311;DHT22;11828;51.508;18.118;2023-04-25T12:01:50;30.40;21.40
23311;DHT22;11828;51.508;18.118;2023-04-25T12:04:24;30.50;21.60
23311;DHT22;11828;51.508;18.118;2023-04-25T12:06:52;30.50;21.20
23311;DHT22;11828;51.508;18.118;2023-04-25T12:09:30;30.60;21.40
23311;DHT22;11828;51.508;18.118;2023-04-25T12:11:59;30.50;21.90
23311;DHT22;11828;51.508;18.118;2023-04-25T12:14:31;30.60;21.60
23311;DHT22;11828;51.508;18.118;2023-04-25T12:16:59;30.60;21.60
23311;DHT22;11828;51.508;18.118;2023-04-25T12:19:35;30.70;21.70
23311;DHT22;11828;51.508;18.118;2023-04-25T12:22:03;30.70;21.60
23311;DHT22;11828;51.508;18.118;2023-04-25T12:24:34;30.60;21.60
23311;DHT22;11828;51.508;18.118;2023-04-25T12:27:03;30.60;21.80
23311;DHT22;11828;51.508;18.118;2023-04-25T12:29:32;30.80;21.80
23311;DHT22;11828;51.508;18.118;2023-04-25T12:31:59;31.00;21.60
23311;DHT22;11828;51.508;18.118;2023-04-25T12:34:28;31.10;21.20
23311;DHT22;11828;51.508;18.118;2023-04-25T12:36:54;31.30;20.80
23311;DHT22;11828;51.508;18.118;2023-04-25T12:39:22;31.60;20.60
23311;DHT22;11828;51.508;18.118;2023-04-25T12:41:50;31.80;20.60
23311;DHT22;11828;51.508;18.118;2023-04-25T12:44:18;32.10;20.70
23311;DHT22;11828;51.508;18.118;2023-04-25T12:46:44;32.30;20.20
23311;DHT22;11828;51.508;18.118;2023-04-25T12:49:11;32.40;20.30
23311;DHT22;11828;51.508;18.118;2023-04-25T12:51:37;32.40;20.10
23311;DHT22;11828;51.508;18.118;2023-04-25T12:54:05;32.50;20.10
23311;DHT22;11828;51.508;18.118;2023-04-25T12:56:32;32.50;20.00
23311;DHT22;11828;51.508;18.118;2023-04-25T12:58:59;32.50;19.80
23311;DHT22;11828;51.508;18.118;2023-04-25T13:01:25;32.30;20.00
23311;DHT22;11828;51.508;18.118;2023-04-25T13:03:52;32.10;20.20
23311;DHT22;11828;51.508;18.118;2023-04-25T13:06:19;31.90;20.20
23311;DHT22;11828;51.508;18.118;2023-04-25T13:08:46;31.80;20.20
23311;DHT22;11828;51.508;18.118;2023-04-25T13:11:12;31.70;20.50
23311;DHT22;11828;51.508;18.118;2023-04-25T13:13:41;31.70;20.60
23311;DHT22;11828;51.508;18.118;2023-04-25T13:16:07;31.60;20.50
23311;DHT22;11828;51.508;18.118;2023-04-25T13:18:34;31.80;20.50
23311;DHT22;11828;51.508;18.118;2023-04-25T13:21:01;31.90;20.30
23311;DHT22;11828;51.508;18.118;2023-04-25T13:23:28;32.10;20.30
23311;DHT22;11828;51.508;18.118;2023-04-25T13:25:55;32.30;20.40
23311;DHT22;11828;51.508;18.118;2023-04-25T13:28:24;32.40;20.30
23311;DHT22;11828;51.508;18.118;2023-04-25T13:30:50;32.40;20.10
23311;DHT22;11828;51.508;18.118;2023-04-25T13:33:18;32.50;20.10
23311;DHT22;11828;51.508;18.118;2023-04-25T13:35:47;32.40;20.00
23311;DHT22;11828;51.508;18.118;2023-04-25T13:38:20;32.30;19.80
23311;DHT22;11828;51.508;18.118;2023-04-25T13:40:47;32.10;20.00
23311;DHT22;11828;51.508;18.118;2023-04-25T13:43:13;32.00;20.00
23311;DHT22;11828;51.508;18.118;2023-04-25T13:45:40;32.00;20.00
23311;DHT22;11828;51.508;18.118;2023-04-25T13:48:06;32.00;20.00
23311;DHT22;11828;51.508;18.118;2023-04-25T13:50:32;32.00;20.30
23311;DHT22;11828;51.508;18.118;2023-04-25T13:52:58;31.90;20.50
23311;DHT22;11828;51.508;18.118;2023-04-25T13:55:25;31.70;20.60
23311;DHT22;11828;51.508;18.118;2023-04-25T13:57:52;31.70;20.70
23311;DHT22;11828;51.508;18.118;2023-04-25T14:00:18;31.50;20.80
23311;DHT22;11828;51.508;18.118;2023-04-25T14:02:46;31.50;20.90
23311;DHT22;11828;51.508;18.118;2023-04-25T14:05:12;31.50;20.80
23311;DHT22;11828;51.508;18.118;2023-04-25T14:07:38;31.40;21.00
23311;DHT22;11828;51.508;18.118;2023-04-25T14:10:05;31.40;21.00
23311;DHT22;11828;51.508;18.118;2023-04-25T14:12:33;31.20;20.90
23311;DHT22;11828;51.508;18.118;2023-04-25T14:14:59;31.20;21.00
23311;DHT22;11828;51.508;18.118;2023-04-25T14:17:25;31.10;21.10
23311;DHT22;11828;51.508;18.118;2023-04-25T14:19:52;31.10;21.10
23311;DHT22;11828;51.508;18.118;2023-04-25T14:22:18;31.10;21.30
23311;DHT22;11828;51.508;18.118;2023-04-25T14:24:45;31.00;21.30
23311;DHT22;11828;51.508;18.118;2023-04-25T14:27:11;31.20;21.40
23311;DHT22;11828;51.508;18.118;2023-04-25T14:29:37;31.20;21.40
23311;DHT22;11828;51.508;18.118;2023-04-25T14:32:03;31.30;21.30
23311;DHT22;11828;51.508;18.118;2023-04-25T14:34:30;31.40;21.30
23311;DHT22;11828;51.508;18.118;2023-04-25T14:36:57;31.40;21.20
23311;DHT22;11828;51.508;18.118;2023-04-25T14:39:23;31.50;21.40
23311;DHT22;11828;51.508;18.118;2023-04-25T14:41:49;31.60;21.40
23311;DHT22;11828;51.508;18.118;2023-04-25T14:44:15;31.70;21.40
23311;DHT22;11828;51.508;18.118;2023-04-25T14:46:42;31.70;21.50
23311;DHT22;11828;51.508;18.118;2023-04-25T14:49:08;31.50;21.30
23311;DHT22;11828;51.508;18.118;2023-04-25T14:51:34;31.40;21.40
23311;DHT22;11828;51.508;18.118;2023-04-25T14:54:00;31.20;21.70
23311;DHT22;11828;51.508;18.118;2023-04-25T14:56:26;31.10;22.10
23311;DHT22;11828;51.508;18.118;2023-04-25T14:58:53;31.00;21.90
23311;DHT22;11828;51.508;18.118;2023-04-25T15:01:19;30.90;21.90
23311;DHT22;11828;51.508;18.118;2023-04-25T15:03:46;30.80;22.20
23311;DHT22;11828;51.508;18.118;2023-04-25T15:06:12;30.70;22.10
23311;DHT22;11828;51.508;18.118;2023-04-25T15:08:38;30.70;22.40
23311;DHT22;11828;51.508;18.118;2023-04-25T15:11:04;30.80;22.50
23311;DHT22;11828;51.508;18.118;2023-04-25T15:13:31;30.90;22.30
23311;DHT22;11828;51.508;18.118;2023-04-25T15:15:57;30.80;22.20
23311;DHT22;11828;51.508;18.118;2023-04-25T15:18:24;30.80;22.30